Time;durP1;ratioP1;P1;durP2;ratioP2;P2;SDS_P1;SDS_P2;PMS_P1;PMS_P2;Temp;Humidity;BMP_temperature;BMP_pressure;BME280_temperature;BME280_humidity;BME280_pressure;Samples;Min_cycle;Max_cycle;Signal;HPM_P1;HPM_P2
2022/11/21 00:01:55;;;;;;;51.97;27.65;;;;;;;3.91;100.00;100671.66;4989687;28;20026;-63
2022/11/21 00:04:20;;;;;;;43.88;25.85;;;;;;;3.98;100.00;100683.81;4989397;28;20029;-63
2022/11/21 00:06:45;;;;;;;46.50;27.13;;;;;;;3.93;100.00;100690.78;4989554;28;20037;-63
2022/11/21 00:09:11;;;;;;;49.58;27.20;;;;;;;4.00;100.00;100687.25;4989839;28;20074;-62
2022/11/21 00:11:36;;;;;;;43.67;25.63;;;;;;;4.11;100.00;100699.31;4990067;28;20044;-64
2022/11/21 00:14:02;;;;;;;49.50;27.40;;;;;;;4.06;100.00;100696.75;4989770;28;20035;-63
2022/11/21 00:16:27;;;;;;;46.38;27.65;;;;;;;4.06;100.00;100695.91;4990025;28;20113;-64
2022/11/21 00:18:52;;;;;;;45.28;26.63;;;;;;;3.98;100.00;100691.63;4988778;28;20038;-63
2022/11/21 00:21:19;;;;;;;55.08;29.63;;;;;;;3.81;100.00;100691.75;4990037;28;20034;-64
2022/11/21 00:23:45;;;;;;;55.35;29.42;;;;;;;3.85;100.00;100685.63;4989851;28;20060;-64
2022/11/21 00:26:11;;;;;;;56.17;29.30;;;;;;;3.90;100.00;100676.03;4989879;28;20035;-64
2022/11/21 00:28:37;;;;;;;51.08;29.00;;;;;;;3.84;100.00;100681.31;4990238;28;20101;-64
2022/11/21 00:31:03;;;;;;;57.55;30.05;;;;;;;3.84;100.00;100686.53;4989790;28;20114;-63
2022/11/21 00:33:29;;;;;;;64.68;31.15;;;;;;;3.74;100.00;100679.66;4988430;28;20489;-63
2022/11/21 00:35:55;;;;;;;58.08;29.35;;;;;;;3.75;100.00;100687.47;4989715;28;20061;-63
2022/11/21 00:38:20;;;;;;;70.55;31.45;;;;;;;3.56;100.00;100686.75;4989882;28;20116;-64
2022/11/21 00:40:45;;;;;;;82.53;31.35;;;;;;;3.65;100.00;100691.00;4988854;28;20437;-65
2022/11/21 00:43:11;;;;;;;97.57;33.90;;;;;;;3.54;100.00;100693.69;4989718;28;20026;-65
2022/11/21 00:45:36;;;;;;;77.55;33.42;;;;;;;3.45;100.00;100686.81;4989327;28;20417;-65
2022/11/21 00:48:01;;;;;;;81.47;33.47;;;;;;;3.45;100.00;100683.31;4988944;28;20362;-65
2022/11/21 00:50:27;;;;;;;83.60;34.45;;;;;;;3.31;100.00;100681.66;4988776;28;20053;-65
2022/11/21 00:52:56;;;;;;;71.15;33.38;;;;;;;3.33;100.00;100687.75;4989059;28;20389;-64
2022/11/21 00:55:22;;;;;;;78.63;35.35;;;;;;;3.43;100.00;100683.34;4989173;28;20022;-65
2022/11/21 00:57:47;;;;;;;75.15;35.03;;;;;;;3.44;100.00;100682.47;4989625;28;20096;-65
2022/11/21 01:00:13;;;;;;;85.68;36.65;;;;;;;3.56;100.00;100678.03;4989376;28;20102;-65
2022/11/21 01:02:38;;;;;;;76.43;36.30;;;;;;;3.45;100.00;100671.19;4986675;28;20109;-65
2022/11/21 01:05:04;;;;;;;76.55;35.97;;;;;;;3.52;100.00;100658.94;4987554;28;20034;-64
2022/11/21 01:07:29;;;;;;;79.15;36.58;;;;;;;3.53;100.00;100660.69;4970224;28;20370;-64
2022/11/21 01:09:55;;;;;;;82.97;35.50;;;;;;;3.37;100.00;100650.38;4988700;28;20373;-64
2022/11/21 01:12:20;;;;;;;79.53;35.38;;;;;;;3.41;100.00;100657.28;4989356;28;20461;-64
2022/11/21 01:14:45;;;;;;;83.63;34.72;;;;;;;3.40;100.00;100655.56;4988871;28;20425;-64
2022/11/21 01:17:11;;;;;;;89.65;37.00;;;;;;;3.36;100.00;100656.47;4988675;28;20165;-65
2022/11/21 01:19:36;;;;;;;84.07;37.42;;;;;;;3.47;100.00;100650.31;4987874;28;20026;-65
2022/11/21 01:22:01;;;;;;;74.70;35.05;;;;;;;3.45;100.00;100641.66;4988538;28;20028;-65
2022/11/21 01:24:27;;;;;;;76.82;35.13;;;;;;;3.50;100.00;100647.69;4988640;28;20109;-64
2022/11/21 01:26:53;;;;;;;78.80;35.88;;;;;;;3.39;100.00;100653.84;4991115;28;20820;-64
2022/11/21 01:29:18;;;;;;;74.65;35.67;;;;;;;3.49;100.00;100662.44;5008499;28;20022;-63
2022/11/21 01:31:44;;;;;;;76.80;35.10;;;;;;;3.52;100.00;100664.16;5007999;28;20084;-64
2022/11/21 01:34:09;;;;;;;78.38;35.72;;;;;;;3.62;100.00;100670.19;5006981;28;20080;-66
2022/11/21 01:36:34;;;;;;;78.00;35.20;;;;;;;3.50;100.00;100679.84;5007590;28;20040;-66
2022/11/21 01:39:03;;;;;;;77.93;36.10;;;;;;;3.58;100.00;100673.69;5007916;28;20474;-66
2022/11/21 01:41:37;;;;;;;75.25;34.65;;;;;;;3.63;100.00;100666.69;5006628;28;20026;-65
2022/11/21 01:44:09;;;;;;;82.57;36.28;;;;;;;3.62;100.00;100658.03;5007898;28;20065;-65
2022/11/21 01:46:35;;;;;;;72.70;34.40;;;;;;;3.57;100.00;100653.72;5006604;28;20050;-64
2022/11/21 01:49:06;;;;;;;76.00;35.13;;;;;;;3.54;100.00;100650.28;5006800;28;20032;-64
2022/11/21 01:51:52;;;;;;;78.43;35.05;;;;;;;3.59;100.00;100651.97;5006470;28;20076;-64
2022/11/21 01:54:25;;;;;;;79.55;35.03;;;;;;;3.62;100.00;100663.25;5007890;28;20018;-64
2022/11/21 01:57:18;;;;;;;71.30;33.92;;;;;;;3.56;100.00;100659.81;4995117;28;20125;-64
2022/11/21 01:59:57;;;;;;;77.03;33.28;;;;;;;3.51;100.00;100649.41;4988711;28;20069;-70
2022/11/21 02:02:23;;;;;;;;;;;;;;;3.46;100.00;100646.00;4993145;28;20021;-67
2022/11/21 02:04:49;;;;;;;70.50;31.38;;;;;;;3.38;100.00;100640.84;5005710;28;20437;-66
2022/11/21 02:07:16;;;;;;;72.63;32.80;;;;;;;3.36;100.00;100642.56;5006630;28;20072;-64
2022/11/21 02:09:44;;;;;;;75.57;32.55;;;;;;;3.36;100.00;100638.25;5006415;28;20497;-66
2022/11/21 02:14:43;;;;;;;88.47;37.35;;;;;;;3.31;100.00;100634.78;5007007;28;20278;-69
2022/11/21 02:17:09;;;;;;;86.47;35.67;;;;;;;3.38;100.00;100641.72;5008101;28;20398;-64
2022/11/21 02:19:46;;;;;;;80.35;34.17;;;;;;;3.50;100.00;100642.50;5006546;28;20034;-69
2022/11/21 02:22:49;;;;;;;90.07;34.67;;;;;;;3.53;100.00;100653.72;4990129;28;20741;-67
2022/11/21 02:25:17;;;;;;;90.07;35.00;;;;;;;3.65;100.00;100644.09;4990745;28;20104;-67
2022/11/21 02:27:43;;;;;;;84.00;34.57;;;;;;;3.68;100.00;100654.50;5007986;28;20077;-69
2022/11/21 02:30:09;;;;;;;81.70;34.72;;;;;;;3.72;100.00;100661.41;5007942;28;20025;-68
2022/11/21 02:32:37;;;;;;;89.97;34.15;;;;;;;3.72;100.00;100665.75;4990695;28;20030;-63
2022/11/21 02:35:03;;;;;;;91.78;35.75;;;;;;;3.64;100.00;100668.41;4974200;28;20077;-67
2022/11/21 02:37:28;;;;;;;81.45;33.05;;;;;;;3.72;100.00;100664.03;4975147;28;20036;-69
2022/11/21 02:39:55;;;;;;;81.10;33.95;;;;;;;3.73;100.00;100663.13;5000121;28;20658;-71
2022/11/21 02:42:25;;;;;;;82.70;33.05;;;;;;;3.82;100.00;100661.34;5005222;28;20456;-68
2022/11/21 02:45:00;;;;;;;82.38;33.45;;;;;;;3.78;100.00;100656.16;5009105;28;20025;-67
2022/11/21 02:47:27;;;;;;;81.75;33.85;;;;;;;3.88;100.00;100643.91;5027134;28;20033;-65
2022/11/21 02:50:01;;;;;;;81.93;33.80;;;;;;;3.89;100.00;100632.59;5009477;28;20033;-68
2022/11/21 02:52:26;;;;;;;72.50;31.75;;;;;;;3.94;100.00;100640.38;5010651;28;20117;-67
2022/11/21 02:54:51;;;;;;;66.07;30.05;;;;;;;3.91;100.00;100641.25;5007653;28;20114;-67
2022/11/21 02:57:17;;;;;;;64.18;29.27;;;;;;;3.95;100.00;100642.13;5008232;28;20026;-65
2022/11/21 02:59:42;;;;;;;67.15;30.85;;;;;;;3.95;100.00;100643.84;5007602;28;20094;-67
2022/11/21 03:02:08;;;;;;;65.93;30.42;;;;;;;3.92;100.00;100634.31;5007440;28;20024;-65
2022/11/21 03:04:33;;;;;;;68.35;29.75;;;;;;;3.93;100.00;100641.25;5006712;28;20088;-67
2022/11/21 03:06:58;;;;;;;68.63;30.02;;;;;;;3.93;100.00;100630.81;5007584;28;20498;-66
2022/11/21 03:09:24;;;;;;;57.92;29.02;;;;;;;3.90;100.00;100630.84;5007942;28;20460;-67
2022/11/21 03:11:49;;;;;;;70.18;31.15;;;;;;;3.94;100.00;100635.16;5007704;28;20483;-67
2022/11/21 03:14:14;;;;;;;81.28;31.55;;;;;;;3.97;100.00;100626.47;5007690;28;20054;-64
2022/11/21 03:16:40;;;;;;;73.57;32.10;;;;;;;3.87;100.00;100630.88;5007536;28;20036;-68
2022/11/21 03:19:05;;;;;;;76.93;31.08;;;;;;;3.91;100.00;100622.13;5006457;28;20037;-68
2022/11/21 03:21:30;;;;;;;80.05;32.10;;;;;;;3.93;100.00;100628.22;5006988;28;20031;-67
2022/11/21 03:23:56;;;;;;;77.55;32.05;;;;;;;3.94;100.00;100623.88;5007137;28;20037;-69
2022/11/21 03:26:21;;;;;;;87.15;33.17;;;;;;;3.86;100.00;100623.94;5007572;28;20029;-67
2022/11/21 03:28:46;;;;;;;83.35;32.88;;;;;;;3.82;100.00;100624.84;5011046;28;20038;-67
2022/11/21 03:31:11;;;;;;;81.68;31.98;;;;;;;3.83;100.00;100616.16;5006548;28;20066;-68
2022/11/21 03:33:37;;;;;;;70.88;31.98;;;;;;;3.87;100.00;100618.72;5006429;28;20060;-68
2022/11/21 03:36:02;;;;;;;67.00;28.45;;;;;;;3.91;100.00;100614.31;5009671;28;20030;-64
2022/11/21 03:38:28;;;;;;;65.30;29.73;;;;;;;3.84;100.00;100617.88;5010734;28;20037;-69
2022/11/21 03:40:53;;;;;;;66.45;29.23;;;;;;;3.88;100.00;100622.16;5010181;28;20033;-68
2022/11/21 03:43:18;;;;;;;68.22;31.30;;;;;;;3.89;100.00;100613.50;5010510;28;20030;-69
2022/11/21 03:45:47;;;;;;;63.22;28.88;;;;;;;3.92;100.00;100623.91;5010430;28;20026;-67
2022/11/21 03:48:13;;;;;;;62.17;29.17;;;;;;;4.07;100.00;100617.66;5009832;28;20026;-67
2022/11/21 03:50:42;;;;;;;67.82;30.60;;;;;;;3.96;100.00;100609.06;5010641;28;20036;-67
2022/11/21 03:53:07;;;;;;;57.17;29.43;;;;;;;4.06;100.00;100607.25;5008298;28;20346;-67
2022/11/21 03:55:33;;;;;;;54.38;27.50;;;;;;;4.06;100.00;100621.13;4992327;28;20787;-67
2022/11/21 03:57:58;;;;;;;58.60;26.80;;;;;;;4.00;100.00;100618.59;5008974;28;20461;-67
2022/11/21 04:00:23;;;;;;;65.50;29.50;;;;;;;3.84;100.00;100617.88;5010144;28;20030;-66
2022/11/21 04:02:49;;;;;;;62.80;29.13;;;;;;;3.86;100.00;100605.69;5008981;28;20092;-68
2022/11/21 04:05:14;;;;;;;59.17;28.80;;;;;;;3.79;100.00;100597.94;5010731;28;20034;-69
2022/11/21 04:07:39;;;;;;;67.97;27.25;;;;;;;3.65;100.00;100592.84;5010017;28;20036;-69
2022/11/21 04:10:05;;;;;;;60.80;26.70;;;;;;;3.52;100.00;100586.00;5009674;28;20116;-59
2022/11/21 04:12:30;;;;;;;53.78;25.45;;;;;;;3.63;100.00;100597.22;5010166;28;20026;-69
2022/11/21 04:14:55;;;;;;;52.47;25.83;;;;;;;3.75;100.00;100595.38;4992485;28;20052;-69
2022/11/21 04:17:21;;;;;;;52.22;26.77;;;;;;;3.88;100.00;100598.72;5010017;28;20061;-69
2022/11/21 04:19:46;;;;;;;45.42;25.23;;;;;;;3.78;100.00;100593.59;5009907;28;20055;-68
2022/11/21 04:22:11;;;;;;;62.75;28.42;;;;;;;3.70;100.00;100600.63;5008323;28;20018;-68
2022/11/21 04:24:37;;;;;;;80.78;31.33;;;;;;;3.64;100.00;100600.66;4992567;28;20030;-68
2022/11/21 04:27:02;;;;;;;76.95;29.40;;;;;;;3.57;100.00;100586.84;5009087;28;20100;-68
2022/11/21 04:29:27;;;;;;;72.72;27.63;;;;;;;3.77;100.00;100596.22;4992060;28;20018;-67
2022/11/21 04:31:53;;;;;;;80.80;28.88;;;;;;;3.68;100.00;100581.53;5009634;28;20559;-69
2022/11/21 04:34:18;;;;;;;133.13;31.02;;;;;;;3.59;100.00;100581.63;5008986;28;20022;-68
2022/11/21 04:36:43;;;;;;;90.55;29.80;;;;;;;3.63;100.00;100581.59;5009918;28;20037;-70
2022/11/21 04:39:09;;;;;;;120.35;29.85;;;;;;;3.41;100.00;100586.13;5009386;28;20058;-66
2022/11/21 04:41:35;;;;;;;57.40;25.95;;;;;;;3.64;100.00;100575.47;5009955;28;20033;-68
2022/11/21 04:44:00;;;;;;;104.40;33.42;;;;;;;3.63;100.00;100575.50;5009565;28;20068;-69
2022/11/21 04:46:25;;;;;;;87.97;28.40;;;;;;;3.69;100.00;100571.97;5010010;28;20030;-67
2022/11/21 04:48:51;;;;;;;96.22;27.92;;;;;;;3.71;100.00;100567.63;5009309;28;20026;-67
2022/11/21 04:51:16;;;;;;;67.95;24.80;;;;;;;3.74;100.00;100565.84;4992473;28;20065;-67
2022/11/21 04:53:41;;;;;;;65.18;25.42;;;;;;;3.77;100.00;100562.34;4992002;28;20064;-68
2022/11/21 04:56:07;;;;;;;67.18;25.27;;;;;;;3.79;100.00;100558.84;5008977;28;20037;-66
2022/11/21 04:58:32;;;;;;;78.57;25.92;;;;;;;3.83;100.00;100558.81;5009571;28;20068;-67
2022/11/21 05:01:04;;;;;;;41.33;23.92;;;;;;;3.68;100.00;100555.47;5009191;28;20022;-67
2022/11/21 05:03:29;;;;;;;109.03;25.85;;;;;;;3.65;100.00;100545.09;5005063;28;20140;-67
2022/11/21 05:05:55;;;;;;;60.28;24.80;;;;;;;3.60;100.00;100546.84;5005557;28;20105;-63
2022/11/21 05:08:20;;;;;;;60.28;25.45;;;;;;;3.53;100.00;100543.47;5008551;28;20057;-67
2022/11/21 05:13:29;;;;;;;56.20;25.02;;;;;;;3.63;100.00;100549.44;5008289;28;20119;-67
2022/11/21 05:15:56;;;;;;;73.40;26.38;;;;;;;3.59;100.00;100546.00;5008155;28;20057;-68
2022/11/21 05:18:21;;;;;;;50.58;27.15;;;;;;;3.57;100.00;100544.28;5007234;28;20034;-69
2022/11/21 05:20:46;;;;;;;133.65;28.15;;;;;;;3.52;100.00;100536.50;5008426;28;20036;-63
2022/11/21 05:23:12;;;;;;;128.15;28.02;;;;;;;3.43;100.00;100527.03;5008008;28;20033;-67
2022/11/21 05:25:38;;;;;;;85.43;29.05;;;;;;;3.45;100.00;100525.28;5013178;28;20037;-69
2022/11/21 05:28:04;;;;;;;88.82;26.55;;;;;;;3.56;100.00;100521.72;5009238;28;20021;-67
2022/11/21 05:30:29;;;;;;;43.00;24.13;;;;;;;3.57;100.00;100519.09;5008248;28;20018;-69
2022/11/21 05:32:54;;;;;;;41.90;24.73;;;;;;;3.52;100.00;100513.06;5007202;28;20083;-69
2022/11/21 05:35:20;;;;;;;73.72;25.50;;;;;;;3.56;100.00;100513.91;5007868;28;20033;-69
2022/11/21 05:37:45;;;;;;;43.00;25.33;;;;;;;3.40;100.00;100517.50;5008346;28;20377;-66
2022/11/21 05:40:11;;;;;;;44.92;24.65;;;;;;;3.51;100.00;100520.03;5007661;28;20041;-69
2022/11/21 05:45:24;;;;;;;46.15;24.08;;;;;;;3.63;100.00;100520.78;5008395;28;20053;-69
2022/11/21 05:47:50;;;;;;;48.08;24.10;;;;;;;3.62;100.00;100514.72;5007050;28;20018;-67
2022/11/21 05:50:15;;;;;;;53.22;25.63;;;;;;;3.59;100.00;100513.88;5025330;28;20036;-69
2022/11/21 05:52:41;;;;;;;71.55;27.25;;;;;;;3.48;100.00;100517.44;5027471;28;20017;-67
2022/11/21 05:55:06;;;;;;;67.05;29.33;;;;;;;3.40;100.00;100509.69;5019894;28;20976;-69
2022/11/21 05:57:32;;;;;;;71.70;27.27;;;;;;;3.38;100.00;100510.59;5009765;28;20384;-67
2022/11/21 05:59:57;;;;;;;55.47;26.23;;;;;;;3.44;100.00;100505.34;5007246;28;20491;-64
2022/11/21 06:05:06;;;;;;;67.50;25.35;;;;;;;3.44;100.00;100497.53;4992229;28;20092;-69
2022/11/21 06:07:32;;;;;;;61.95;25.67;;;;;;;3.48;100.00;100496.63;5016680;28;20025;-69
2022/11/21 06:09:57;;;;;;;53.35;24.92;;;;;;;3.50;100.00;100484.44;5026947;28;20045;-70
2022/11/21 06:12:22;;;;;;;53.28;24.48;;;;;;;3.50;100.00;100479.25;5027562;28;20040;-63
2022/11/21 06:14:48;;;;;;;59.55;26.45;;;;;;;3.50;100.00;100476.63;5028359;28;20022;-67
2022/11/21 06:17:13;;;;;;;52.53;25.02;;;;;;;3.46;100.00;100477.50;5027875;28;20559;-68
2022/11/21 06:19:38;;;;;;;47.92;24.58;;;;;;;3.45;100.00;100469.72;4996973;28;20430;-68
2022/11/21 06:22:04;;;;;;;67.32;26.70;;;;;;;3.42;100.00;100470.63;4988464;28;20563;-68
2022/11/21 06:24:29;;;;;;;53.67;24.45;;;;;;;3.47;100.00;100463.63;4997144;28;20800;-69
2022/11/21 06:26:54;;;;;;;47.17;23.50;;;;;;;3.45;100.00;100464.50;5008810;28;20484;-67
2022/11/21 06:29:21;;;;;;;45.25;24.55;;;;;;;3.45;100.00;100470.59;4995933;28;20033;-69
2022/11/21 06:31:46;;;;;;;47.50;24.25;;;;;;;3.50;100.00;100458.41;4998724;28;20022;-70
2022/11/21 06:34:11;;;;;;;43.47;23.65;;;;;;;3.52;100.00;100456.63;4997240;28;20509;-70
2022/11/21 06:36:37;;;;;;;45.60;23.33;;;;;;;3.53;100.00;100462.69;4996205;28;20496;-69
2022/11/21 06:39:02;;;;;;;63.33;25.23;;;;;;;3.58;100.00;100458.28;5008496;28;20340;-71
2022/11/21 06:41:30;;;;;;;52.03;25.75;;;;;;;3.65;100.00;100459.09;5007940;28;20048;-69
2022/11/21 06:44:00;;;;;;;65.03;26.42;;;;;;;3.63;100.00;100463.44;4988792;28;20056;-66
2022/11/21 06:46:25;;;;;;;72.68;25.23;;;;;;;3.65;100.00;100456.50;4998612;28;20025;-65
2022/11/21 06:48:51;;;;;;;58.97;24.13;;;;;;;3.61;100.00;100462.63;4995412;28;20053;-68
2022/11/21 06:51:21;;;;;;;49.92;23.55;;;;;;;3.64;100.00;100454.75;4999643;28;20065;-70
2022/11/21 06:53:47;;;;;;;45.20;21.80;;;;;;;3.61;100.00;100447.84;4990608;28;20022;-69
2022/11/21 06:56:14;;;;;;;38.45;22.00;;;;;;;3.68;100.00;100451.25;5028169;28;20026;-67
2022/11/21 06:58:39;;;;;;;37.85;21.15;;;;;;;3.72;100.00;100441.63;5026524;28;20499;-70
2022/11/21 07:01:06;;;;;;;34.97;20.70;;;;;;;3.62;100.00;100435.69;5026936;28;20113;-70
2022/11/21 07:03:32;;;;;;;26.48;17.75;;;;;;;3.70;100.00;100418.19;5026284;28;20388;-69
2022/11/21 07:06:00;;;;;;;32.30;19.05;;;;;;;3.74;100.00;100416.44;5013862;28;20037;-63
2022/11/21 07:08:26;;;;;;;36.03;20.90;;;;;;;3.71;100.00;100409.53;4993347;28;20065;-71
2022/11/21 07:10:51;;;;;;;33.63;20.00;;;;;;;3.84;100.00;100414.56;4992373;28;20057;-71
2022/11/21 07:13:23;;;;;;;33.00;19.40;;;;;;;3.69;100.00;100406.06;4992807;28;20041;-65
2022/11/21 07:15:52;;;;;;;33.10;20.25;;;;;;;3.64;100.00;100411.31;4992160;28;20109;-69
2022/11/21 07:18:21;;;;;;;33.33;20.25;;;;;;;3.70;100.00;100417.34;4990153;28;20126;-66
2022/11/21 07:20:47;;;;;;;36.25;20.25;;;;;;;3.75;100.00;100416.41;4991214;28;20121;-67
2022/11/21 07:23:13;;;;;;;34.25;19.38;;;;;;;3.83;100.00;100412.84;5002446;28;20464;-68
2022/11/21 07:25:39;;;;;;;36.90;19.83;;;;;;;3.83;100.00;100423.25;5030808;28;20037;-68
2022/11/21 07:28:06;;;;;;;36.35;19.00;;;;;;;3.84;100.00;100424.97;5012063;28;20033;-67
2022/11/21 07:30:31;;;;;;;27.02;17.70;;;;;;;3.85;100.00;100424.97;5030199;28;20053;-67
2022/11/21 07:33:01;;;;;;;26.98;17.38;;;;;;;3.93;100.00;100419.66;5029448;28;20079;-70
2022/11/21 07:35:27;;;;;;;30.55;18.13;;;;;;;3.91;100.00;100421.41;5030035;28;20025;-68
2022/11/21 07:37:52;;;;;;;32.47;16.58;;;;;;;3.93;100.00;100419.66;5029937;28;20087;-68
2022/11/21 07:40:19;;;;;;;29.58;17.92;;;;;;;4.06;100.00;100422.97;5005694;28;20512;-65
2022/11/21 07:42:44;;;;;;;29.15;17.25;;;;;;;4.10;100.00;100415.97;4989904;28;20022;-68
2022/11/21 07:45:10;;;;;;;26.88;17.20;;;;;;;4.06;100.00;100419.50;5009714;28;20022;-67
2022/11/21 07:47:35;;;;;;;23.13;16.30;;;;;;;4.01;100.00;100412.59;5008802;28;20026;-64
2022/11/21 07:50:00;;;;;;;29.30;15.95;;;;;;;3.95;100.00;100410.09;5009648;28;20399;-68
2022/11/21 07:52:29;;;;;;;24.35;14.82;;;;;;;3.91;100.00;100403.16;5007795;28;20030;-69
2022/11/21 07:54:54;;;;;;;27.63;15.48;;;;;;;3.91;100.00;100397.94;5008292;28;20018;-68
2022/11/21 07:57:20;;;;;;;27.88;14.68;;;;;;;3.85;100.00;100392.84;5009314;28;20460;-65
2022/11/21 07:59:45;;;;;;;30.98;16.42;;;;;;;3.77;100.00;100395.53;4991340;28;20030;-69
2022/11/21 08:02:19;;;;;;;28.63;15.38;;;;;;;3.74;100.00;100404.28;5007691;28;20040;-69
2022/11/21 08:04:44;;;;;;;27.38;17.10;;;;;;;3.78;100.00;100386.84;5009405;28;20038;-68
2022/11/21 08:07:10;;;;;;;29.45;16.83;;;;;;;3.84;100.00;100383.28;5009559;28;20034;-69
2022/11/21 08:09:35;;;;;;;31.65;17.38;;;;;;;3.86;100.00;100376.31;5010979;28;20113;-65
2022/11/21 08:12:00;;;;;;;29.90;16.77;;;;;;;3.95;100.00;100381.41;5010700;28;20033;-68
2022/11/21 08:14:26;;;;;;;34.28;17.48;;;;;;;4.08;100.00;100369.06;5010201;28;20050;-70
2022/11/21 08:16:51;;;;;;;32.80;17.85;;;;;;;4.11;100.00;100371.63;5009400;28;20033;-69
2022/11/21 08:19:17;;;;;;;32.15;17.08;;;;;;;4.15;100.00;100362.84;5010715;28;20033;-68
2022/11/21 08:21:42;;;;;;;30.70;16.35;;;;;;;4.11;100.00;100368.13;5010719;28;20468;-69
2022/11/21 08:24:12;;;;;;;26.65;15.68;;;;;;;4.19;100.00;100366.28;5009905;28;20026;-68
2022/11/21 08:26:37;;;;;;;31.75;17.90;;;;;;;4.20;100.00;100362.78;5010800;28;20420;-70
2022/11/21 08:29:03;;;;;;;31.42;17.00;;;;;;;4.30;100.00;100359.16;5009658;28;20037;-69
2022/11/21 08:31:28;;;;;;;33.85;17.83;;;;;;;4.35;100.00;100356.47;5010340;28;20109;-69
2022/11/21 08:33:56;;;;;;;36.05;15.98;;;;;;;4.48;100.00;100349.31;5008746;28;20097;-70
2022/11/21 08:36:22;;;;;;;28.47;16.47;;;;;;;4.54;100.00;100356.16;5009895;28;20026;-71
2022/11/21 08:38:47;;;;;;;34.67;17.73;;;;;;;4.60;100.00;100350.00;5009163;28;20029;-66
2022/11/21 08:43:56;;;;;;;32.65;16.02;;;;;;;4.77;100.00;100347.09;5009123;28;20427;-70
2022/11/21 08:46:26;;;;;;;29.45;16.10;;;;;;;4.80;100.00;100345.31;5009428;28;20030;-69
2022/11/21 08:48:51;;;;;;;;;;;;;;;4.79;100.00;100340.09;5009794;28;20034;-67
2022/11/21 08:51:17;;;;;;;24.55;14.70;;;;;;;4.79;100.00;100338.34;5010057;28;19914;-70
2022/11/21 08:53:42;;;;;;;29.83;14.70;;;;;;;4.86;100.00;100327.78;5009020;28;20033;-68
2022/11/21 08:56:07;;;;;;;24.50;13.50;;;;;;;4.88;100.00;100333.84;5008054;28;20034;-65
2022/11/21 08:58:32;;;;;;;28.33;15.68;;;;;;;4.91;100.00;100325.97;5008810;28;20049;-68
2022/11/21 09:00:59;;;;;;;24.38;14.93;;;;;;;4.96;100.00;100328.50;5008076;28;20041;-71
2022/11/21 09:03:24;;;;;;;23.88;14.90;;;;;;;5.00;100.00;100317.94;5007717;28;20030;-65
2022/11/21 09:05:49;;;;;;;28.55;14.63;;;;;;;5.06;100.00;100312.59;4994665;28;20025;-70
2022/11/21 09:08:15;;;;;;;26.17;14.98;;;;;;;5.14;100.00;100317.69;5028930;28;20036;-70
2022/11/21 09:10:40;;;;;;;28.95;14.85;;;;;;;5.22;100.00;100314.94;5028020;28;20025;-69
2022/11/21 09:13:05;;;;;;;28.67;16.02;;;;;;;5.31;100.00;100314.75;5025719;28;20048;-70
2022/11/21 09:18:14;;;;;;;28.83;14.68;;;;;;;5.51;100.00;100299.53;4989110;28;20084;-70
2022/11/21 09:20:41;;;;;;;32.80;15.35;;;;;;;5.61;100.00;100294.97;4989080;28;20054;-66
2022/11/21 09:23:09;;;;;;;27.35;14.73;;;;;;;5.65;100.00;100287.03;4993347;28;20045;-70
2022/11/21 09:25:34;;;;;;;22.30;14.13;;;;;;;5.80;100.00;100284.94;5005588;28;20053;-69
2022/11/21 09:28:04;;;;;;;25.25;14.30;;;;;;;5.89;100.00;100289.09;4989701;28;20116;-68
2022/11/21 09:30:30;;;;;;;30.67;14.13;;;;;;;6.01;100.00;100301.03;5007905;28;20061;-69
2022/11/21 09:33:02;;;;;;;25.35;13.57;;;;;;;6.08;100.00;100294.78;5008153;28;20493;-71
2022/11/21 09:35:28;;;;;;;23.73;12.02;;;;;;;6.17;100.00;100291.13;5008313;28;20061;-70
2022/11/21 09:37:53;;;;;;;25.90;12.63;;;;;;;6.26;100.00;100288.25;4990615;28;20049;-67
2022/11/21 09:40:18;;;;;;;25.10;12.02;;;;;;;6.31;100.00;100286.38;5007790;28;20101;-69
2022/11/21 09:43:02;;;;;;;24.27;11.32;;;;;;;6.46;100.00;100279.03;5008550;28;20037;-69
2022/11/21 09:45:35;;;;;;;25.63;10.85;;;;;;;6.63;100.00;100288.22;4990636;28;20029;-66
2022/11/21 09:48:10;;;;;;;22.67;11.15;;;;;;;6.68;100.00;100275.84;4997781;28;20041;-68
2022/11/21 09:50:46;;;;;;;21.00;10.50;;;;;;;6.83;100.00;100278.06;4987566;28;20136;-68
2022/11/21 09:53:14;;;;;;;25.10;11.00;;;;;;;6.92;100.00;100270.84;4987162;28;20041;-70
2022/11/21 09:55:50;;;;;;;18.17;9.67;;;;;;;7.05;100.00;100269.59;4998608;28;20029;-74
2022/11/21 09:58:26;;;;;;;22.38;9.18;;;;;;;7.19;100.00;100263.09;4996120;28;20034;-72
2022/11/21 10:00:52;;;;;;;20.85;8.27;;;;;;;7.26;100.00;100259.41;4986577;28;20018;-66
2022/11/21 10:03:20;;;;;;;17.20;7.80;;;;;;;7.36;100.00;100259.13;4986650;28;20068;-64
2022/11/21 10:06:00;;;;;;;21.88;8.20;;;;;;;7.48;100.00;100248.28;4989477;28;20117;-64
2022/11/21 10:09:01;;;;;;;20.75;7.78;;;;;;;7.74;100.00;100245.75;4987554;28;20053;-68
2022/11/21 10:14:41;;;;;;;19.40;6.78;;;;;;;7.87;100.00;100246.22;5001297;28;20056;-70
2022/11/21 10:17:21;;;;;;;16.73;5.63;;;;;;;7.93;100.00;100248.66;4996076;28;20038;-70
2022/11/21 10:19:50;;;;;;;12.45;5.20;;;;;;;8.12;100.00;100237.56;5002269;28;20029;-68
2022/11/21 10:22:42;;;;;;;15.43;5.57;;;;;;;8.26;100.00;100230.06;4988410;28;20473;-67
2022/11/21 10:25:21;;;;;;;13.77;5.45;;;;;;;8.41;100.00;100238.31;5007324;28;20206;-70
2022/11/21 10:27:51;;;;;;;13.85;5.35;;;;;;;8.53;100.00;100230.03;5007356;28;20092;-65
2022/11/21 10:30:18;;;;;;;14.27;4.82;;;;;;;8.69;100.00;100227.75;4989868;28;20404;-69
2022/11/21 10:32:47;;;;;;;14.65;4.72;;;;;;;8.72;100.00;100217.13;5006705;28;20124;-68
2022/11/21 10:35:21;;;;;;;12.48;4.72;;;;;;;8.81;100.00;100215.94;4989984;28;20022;-66
2022/11/21 10:37:55;;;;;;;11.55;4.45;;;;;;;8.83;100.00;100211.50;5008057;28;20025;-67
2022/11/21 10:40:42;;;;;;;15.90;4.97;;;;;;;8.84;100.00;100210.56;4988144;28;20388;-66
2022/11/21 10:45:57;;;;;;;15.80;4.72;;;;;;;9.06;100.00;100204.50;4999067;28;20113;-67
2022/11/21 10:48:22;;;;;;;13.52;5.43;;;;;;;8.96;100.00;100205.75;5006062;28;20030;-68
2022/11/21 10:51:19;;;;;;;14.68;5.03;;;;;;;9.06;100.00;100204.50;5011748;28;20380;-65
2022/11/21 10:56:31;;;;;;;16.63;5.32;;;;;;;9.02;100.00;100189.75;5003885;28;20037;-69
2022/11/21 10:58:58;;;;;;;12.32;5.20;;;;;;;9.09;100.00;100193.88;4992145;28;20053;-69
2022/11/21 11:01:30;;;;;;;14.57;4.85;;;;;;;9.21;100.00;100186.41;4999627;28;20037;-68
2022/11/21 11:04:11;;;;;;;14.98;5.05;;;;;;;9.22;100.00;100190.78;5010870;28;20129;-67
2022/11/21 11:06:41;;;;;;;13.27;5.25;;;;;;;9.25;100.00;100180.16;5006888;28;20030;-68
2022/11/21 11:09:21;;;;;;;11.82;4.85;;;;;;;9.31;100.00;100172.03;4982496;28;20018;-68
2022/11/21 11:11:46;;;;;;;9.73;5.00;;;;;;;9.42;100.00;100173.38;4992331;28;20081;-65
2022/11/21 11:14:13;;;;;;;14.68;5.47;;;;;;;9.44;100.00;100166.25;4974207;28;20043;-65
2022/11/21 11:16:43;;;;;;;12.68;5.05;;;;;;;9.45;100.00;100165.38;4994470;28;20034;-65
2022/11/21 11:19:11;;;;;;;13.32;5.13;;;;;;;9.40;100.00;100160.28;4991583;28;20030;-63
2022/11/21 11:21:39;;;;;;;16.33;5.90;;;;;;;9.43;100.00;100159.28;4998137;28;20031;-63
2022/11/21 11:24:08;;;;;;;15.07;5.47;;;;;;;9.51;100.00;100151.09;4998534;28;20035;-64
2022/11/21 11:26:33;;;;;;;16.37;5.40;;;;;;;9.41;100.00;100147.97;5004519;28;20164;-66
2022/11/21 11:29:13;;;;;;;21.08;5.28;;;;;;;9.46;100.00;100146.88;5003413;28;20363;-65
2022/11/21 11:31:40;;;;;;;12.80;4.93;;;;;;;9.44;100.00;100145.22;5005911;28;20369;-65
2022/11/21 11:34:11;;;;;;;17.40;5.93;;;;;;;9.51;100.00;100135.31;4999919;28;20021;-62
2022/11/21 11:36:43;;;;;;;13.60;5.32;;;;;;;9.58;100.00;100136.78;4998338;28;20053;-65
2022/11/21 11:40:04;;;;;;;17.25;6.13;;;;;;;9.68;100.00;100121.47;4993478;28;20060;-66